Scf Progress — A8YG9 — position and weather

sailwx.info

Track history (hours):
 
Tides and Currents Weather Stations Pressure Air Temp Water Temp Dewpoint Dewpoint Depression Visibility Wind Speed Wind Dir Waves Ship Positions

Scf Progress

Last reported at 2018-Jun-13 01:57 UTC. Time now 2018-Jun-19 22:17 UTC.
Position N 40°12' W 073°33'.

Length 228 m; draft 8.2 m.

Type: Tanker. MMSI: 636015052.

Date/timePositionNaut miles runAvg speedWind from/ knotsBaromVisibWave heightAir tempDewpointWater temp
2018-Jun-13 01:57N 40°12' W 073°33'612.8
2018-Jun-13 01:30N 40°16' W 073°38'712.6
2018-Jun-13 00:57N 40°22' W 073°43'611.5
2018-Jun-13 00:25N 40°27' W 073°41'4 9.8
2018-Jun-13 00:00N 40°29' W 073°36'1 0.0
2018-Jun-12 09:35N 40°29' W 073°36'0 0.0
2018-Jun-12 05:50N 40°29' W 073°36'0 0.1
2018-Jun-12 05:29N 40°29' W 073°36'0 0.1
2018-Jun-12 04:50N 40°29' W 073°36'0 0.0
2018-Jun-12 03:35N 40°29' W 073°36'0 0.0
2018-Jun-12 03:05N 40°29' W 073°36'0 0.0
2018-Jun-11 16:20N 40°29' W 073°36'0 0.0
2018-Jun-10 06:20N 40°29' W 073°36'0 0.0
2018-Jun-10 05:56N 40°29' W 073°36'0 0.1
2018-Jun-10 03:08N 40°29' W 073°36'0 0.1
2018-Jun-10 02:56N 40°29' W 073°36'0 0.0
2018-Jun-10 02:23N 40°29' W 073°36'0 0.1
2018-Jun-10 01:44N 40°29' W 073°35'0 0.0
2018-Jun-08 11:14N 40°29' W 073°36'0 0.0
2018-Jun-08 10:50N 40°29' W 073°36'0 0.0
2018-Jun-08 10:23N 40°29' W 073°36'0 0.0
2018-Jun-08 09:47N 40°29' W 073°36'0 0.1
2018-Jun-08 09:29N 40°29' W 073°36'0 0.2
2018-Jun-08 08:56N 40°29' W 073°36'0 0.2
2018-Jun-08 08:08N 40°29' W 073°36'0 0.1
2018-Jun-08 07:59N 40°29' W 073°36'0 0.0
2018-Jun-08 07:29N 40°29' W 073°36'0 0.0
2018-Jun-08 06:56N 40°29' W 073°36'0 0.0
2018-Jun-08 06:29N 40°29' W 073°36'0 0.1
2018-Jun-08 05:59N 40°29' W 073°36'0 0.1
2018-Jun-08 05:26N 40°29' W 073°36'0 0.0
2018-Jun-08 04:59N 40°29' W 073°36'0 0.1
2018-Jun-08 04:08N 40°29' W 073°36'0 0.0
2018-Jun-08 03:02N 40°29' W 073°36'0 0.0
2018-Jun-08 02:59N 40°29' W 073°36'0 0.1
2018-Jun-08 02:29N 40°29' W 073°36'0 0.0
2018-Jun-08 01:59N 40°29' W 073°36'0 0.0
2018-Jun-08 01:29N 40°29' W 073°36'0 0.0
2018-Jun-08 00:50N 40°29' W 073°36'0 0.0
2018-Jun-07 13:29N 40°29' W 073°36'0 0.2
2018-Jun-07 12:59N 40°29' W 073°36'0 0.1
2018-Jun-07 12:29N 40°29' W 073°36'0 0.1
2018-Jun-07 11:59N 40°29' W 073°36'0 0.0
2018-Jun-07 11:14N 40°29' W 073°36'0 0.0
2018-Jun-07 10:59N 40°29' W 073°36'0 0.0
2018-Jun-07 10:26N 40°29' W 073°36'0 0.0
2018-Jun-07 09:56N 40°29' W 073°36'0 0.0
2018-Jun-07 09:29N 40°29' W 073°36'0 0.0
2018-Jun-07 08:56N 40°29' W 073°36'0 0.1
2018-Jun-07 08:29N 40°29' W 073°36'0 0.2
2018-Jun-07 07:56N 40°29' W 073°36'0 0.2
2018-Jun-07 07:29N 40°29' W 073°36'7 0.2
2018-Jun-05 16:51N 40°28' W 073°45'310.3
2018-Jun-05 16:30N 40°28' W 073°50'611.4
2018-Jun-05 16:00N 40°30' W 073°57'612.1
2018-Jun-05 15:30N 40°34' W 074°02'4 7.8
2018-Jun-05 15:00N 40°38' W 074°04'0 0.8
2018-Jun-05 14:28N 40°38' W 074°04'0 0.1
2018-Jun-05 13:58N 40°38' W 074°04'0 0.1
2018-Jun-05 13:28N 40°38' W 074°04'0 0.1
2018-Jun-05 12:58N 40°38' W 074°04'0 0.1
2018-Jun-05 12:28N 40°38' W 074°04'0 0.0
2018-Jun-05 11:58N 40°38' W 074°04'0 0.0
2018-Jun-05 11:28N 40°38' W 074°04'0 0.0
2018-Jun-05 10:58N 40°38' W 074°04'0 0.0
2018-Jun-05 10:28N 40°38' W 074°04'0 0.0
2018-Jun-05 09:58N 40°38' W 074°04'0 0.0
2018-Jun-05 09:28N 40°38' W 074°04'0 0.1
2018-Jun-05 08:58N 40°38' W 074°04'0 0.0
2018-Jun-05 08:28N 40°38' W 074°04'0 0.0
2018-Jun-05 07:58N 40°38' W 074°04'0 0.2
2018-Jun-05 07:28N 40°38' W 074°04'0 0.4
2018-Jun-05 06:58N 40°38' W 074°04'0 0.1
2018-Jun-05 06:28N 40°38' W 074°04'0 0.0
2018-Jun-05 05:58N 40°38' W 074°04'0 0.1
2018-Jun-05 05:28N 40°38' W 074°04'0 0.0
2018-Jun-05 04:58N 40°38' W 074°04'0 0.0
2018-Jun-05 04:28N 40°38' W 074°04'0 0.0
2018-Jun-05 03:58N 40°38' W 074°04'0 0.0
2018-Jun-05 03:28N 40°38' W 074°04'0 0.1
2018-Jun-05 02:58N 40°38' W 074°04'0 0.1
2018-Jun-05 02:28N 40°38' W 074°04'1 1.4
2018-Jun-05 02:00N 40°38' W 074°04'2 3.8
2018-Jun-05 01:30N 40°39' W 074°06'0 0.0
2018-Jun-04 04:26N 40°39' W 074°06'1 1.5
2018-Jun-04 04:00N 40°39' W 074°05'2 3.3
2018-Jun-04 03:29N 40°38' W 074°04'0 0.1
2018-Jun-04 02:59N 40°38' W 074°04'0 0.0
2018-Jun-04 02:29N 40°38' W 074°04'0 0.1
2018-Jun-04 01:59N 40°38' W 074°04'0 0.0
2018-Jun-04 01:29N 40°38' W 074°04'0 0.1
2018-Jun-04 00:59N 40°38' W 074°04'0 0.0
2018-Jun-04 00:29N 40°38' W 074°04'0 0.1
2018-Jun-03 23:59N 40°38' W 074°04'0 0.2
2018-Jun-03 23:29N 40°38' W 074°04'0 0.1
2018-Jun-03 22:59N 40°38' W 074°04'0 0.0
2018-Jun-03 22:29N 40°38' W 074°04'1 2.0
2018-Jun-03 22:00N 40°38' W 074°03'2 2.9
2018-Jun-03 21:28N 40°39' W 074°05'  
Track history (hours):
 
Tides and Currents Weather Stations Pressure Air Temp Water Temp Dewpoint Dewpoint Depression Visibility Wind Speed Wind Dir Waves Ship Positions

Scf Progress

Last reported at 2018-Jun-13 01:57 UTC. Time now 2018-Jun-19 22:17 UTC.
Position N 40°12' W 073°33'.

Length 228 m; draft 8.2 m.

Type: Tanker. MMSI: 636015052.

Date/timePositionNaut miles runAvg speedWind from/ knotsBaromVisibWave heightAir tempDewpointWater temp
2018-Jun-13 01:57N 40°12' W 073°33'612.8
2018-Jun-13 01:30N 40°16' W 073°38'712.6
2018-Jun-13 00:57N 40°22' W 073°43'611.5
2018-Jun-13 00:25N 40°27' W 073°41'4 9.8
2018-Jun-13 00:00N 40°29' W 073°36'1 0.0
2018-Jun-12 09:35N 40°29' W 073°36'0 0.0
2018-Jun-12 05:50N 40°29' W 073°36'0 0.1
2018-Jun-12 05:29N 40°29' W 073°36'0 0.1
2018-Jun-12 04:50N 40°29' W 073°36'0 0.0
2018-Jun-12 03:35N 40°29' W 073°36'0 0.0
2018-Jun-12 03:05N 40°29' W 073°36'0 0.0
2018-Jun-11 16:20N 40°29' W 073°36'0 0.0
2018-Jun-10 06:20N 40°29' W 073°36'0 0.0
2018-Jun-10 05:56N 40°29' W 073°36'0 0.1
2018-Jun-10 03:08N 40°29' W 073°36'0 0.1
2018-Jun-10 02:56N 40°29' W 073°36'0 0.0
2018-Jun-10 02:23N 40°29' W 073°36'0 0.1
2018-Jun-10 01:44N 40°29' W 073°35'0 0.0
2018-Jun-08 11:14N 40°29' W 073°36'0 0.0
2018-Jun-08 10:50N 40°29' W 073°36'0 0.0
2018-Jun-08 10:23N 40°29' W 073°36'0 0.0
2018-Jun-08 09:47N 40°29' W 073°36'0 0.1
2018-Jun-08 09:29N 40°29' W 073°36'0 0.2
2018-Jun-08 08:56N 40°29' W 073°36'0 0.2
2018-Jun-08 08:08N 40°29' W 073°36'0 0.1
2018-Jun-08 07:59N 40°29' W 073°36'0 0.0
2018-Jun-08 07:29N 40°29' W 073°36'0 0.0
2018-Jun-08 06:56N 40°29' W 073°36'0 0.0
2018-Jun-08 06:29N 40°29' W 073°36'0 0.1
2018-Jun-08 05:59N 40°29' W 073°36'0 0.1
2018-Jun-08 05:26N 40°29' W 073°36'0 0.0
2018-Jun-08 04:59N 40°29' W 073°36'0 0.1
2018-Jun-08 04:08N 40°29' W 073°36'0 0.0
2018-Jun-08 03:02N 40°29' W 073°36'0 0.0
2018-Jun-08 02:59N 40°29' W 073°36'0 0.1
2018-Jun-08 02:29N 40°29' W 073°36'0 0.0
2018-Jun-08 01:59N 40°29' W 073°36'0 0.0
2018-Jun-08 01:29N 40°29' W 073°36'0 0.0
2018-Jun-08 00:50N 40°29' W 073°36'0 0.0
2018-Jun-07 13:29N 40°29' W 073°36'0 0.2
2018-Jun-07 12:59N 40°29' W 073°36'0 0.1
2018-Jun-07 12:29N 40°29' W 073°36'0 0.1
2018-Jun-07 11:59N 40°29' W 073°36'0 0.0
2018-Jun-07 11:14N 40°29' W 073°36'0 0.0
2018-Jun-07 10:59N 40°29' W 073°36'0 0.0
2018-Jun-07 10:26N 40°29' W 073°36'0 0.0
2018-Jun-07 09:56N 40°29' W 073°36'0 0.0
2018-Jun-07 09:29N 40°29' W 073°36'0 0.0
2018-Jun-07 08:56N 40°29' W 073°36'0 0.1
2018-Jun-07 08:29N 40°29' W 073°36'0 0.2
2018-Jun-07 07:56N 40°29' W 073°36'0 0.2
2018-Jun-07 07:29N 40°29' W 073°36'7 0.2
2018-Jun-05 16:51N 40°28' W 073°45'310.3
2018-Jun-05 16:30N 40°28' W 073°50'611.4
2018-Jun-05 16:00N 40°30' W 073°57'612.1
2018-Jun-05 15:30N 40°34' W 074°02'4 7.8
2018-Jun-05 15:00N 40°38' W 074°04'0 0.8
2018-Jun-05 14:28N 40°38' W 074°04'0 0.1
2018-Jun-05 13:58N 40°38' W 074°04'0 0.1
2018-Jun-05 13:28N 40°38' W 074°04'0 0.1
2018-Jun-05 12:58N 40°38' W 074°04'0 0.1
2018-Jun-05 12:28N 40°38' W 074°04'0 0.0
2018-Jun-05 11:58N 40°38' W 074°04'0 0.0
2018-Jun-05 11:28N 40°38' W 074°04'0 0.0
2018-Jun-05 10:58N 40°38' W 074°04'0 0.0
2018-Jun-05 10:28N 40°38' W 074°04'0 0.0
2018-Jun-05 09:58N 40°38' W 074°04'0 0.0
2018-Jun-05 09:28N 40°38' W 074°04'0 0.1
2018-Jun-05 08:58N 40°38' W 074°04'0 0.0
2018-Jun-05 08:28N 40°38' W 074°04'0 0.0
2018-Jun-05 07:58N 40°38' W 074°04'0 0.2
2018-Jun-05 07:28N 40°38' W 074°04'0 0.4
2018-Jun-05 06:58N 40°38' W 074°04'0 0.1
2018-Jun-05 06:28N 40°38' W 074°04'0 0.0
2018-Jun-05 05:58N 40°38' W 074°04'0 0.1
2018-Jun-05 05:28N 40°38' W 074°04'0 0.0
2018-Jun-05 04:58N 40°38' W 074°04'0 0.0
2018-Jun-05 04:28N 40°38' W 074°04'0 0.0
2018-Jun-05 03:58N 40°38' W 074°04'0 0.0
2018-Jun-05 03:28N 40°38' W 074°04'0 0.1
2018-Jun-05 02:58N 40°38' W 074°04'0 0.1
2018-Jun-05 02:28N 40°38' W 074°04'1 1.4
2018-Jun-05 02:00N 40°38' W 074°04'2 3.8
2018-Jun-05 01:30N 40°39' W 074°06'0 0.0
2018-Jun-04 04:26N 40°39' W 074°06'1 1.5
2018-Jun-04 04:00N 40°39' W 074°05'2 3.3
2018-Jun-04 03:29N 40°38' W 074°04'0 0.1
2018-Jun-04 02:59N 40°38' W 074°04'0 0.0
2018-Jun-04 02:29N 40°38' W 074°04'0 0.1
2018-Jun-04 01:59N 40°38' W 074°04'0 0.0
2018-Jun-04 01:29N 40°38' W 074°04'0 0.1
2018-Jun-04 00:59N 40°38' W 074°04'0 0.0
2018-Jun-04 00:29N 40°38' W 074°04'0 0.1
2018-Jun-03 23:59N 40°38' W 074°04'0 0.2
2018-Jun-03 23:29N 40°38' W 074°04'0 0.1
2018-Jun-03 22:59N 40°38' W 074°04'0 0.0
2018-Jun-03 22:29N 40°38' W 074°04'1 2.0
2018-Jun-03 22:00N 40°38' W 074°03'2 2.9
2018-Jun-03 21:28N 40°39' W 074°05'  

Dump ship's entire track history